首页
METAR-TAF:

METAR-TAF

机场 :

雅典埃莱夫塞里奥斯·韦尼泽洛斯国际机场

雅典, 希腊

纬度: 37-56N, 经度: 023-56E, 海拔: 94米

当前天气观测

该预报发布于15分钟前的12:20 UTC
风速22节,风向东北
温度 34°C
湿度 26%
气压 1011 hPa
能见度10公里或以上
少量云层高于3000英尺

METAR: LGAV 181220Z 04022KT 9999 FEW030 34/12 Q1011 NOSIG

时间: 15:35 (12:35 UTC)

预报

该预报发布于1小时和35分钟前的11:00 UTC
预报有效从18日的 12点(UTC)到 19日的 12点(UTC)
风速16节,风向北转东北
能见度10公里或以上
少量云层高于3000英尺
短暂存在
从 18日的 12点(UTC)到 18日的 17点(UTC)
风速16节,风向北转东北,有时为26节阵风
成为
从 18日的 17点(UTC)到 18日的 19点(UTC)
风速15节,风向北转西北
成为
从 18日的 21点(UTC)到 18日的 23点(UTC)
风速18节,风向,有时为28节阵风

TAF: LGAV 181100Z 1812/1912 02016KT 9999 FEW030 TEMPO 1812/1817 02016G26KT BECMG 1817/1819 34015KT BECMG 1821/1823 36018G28KT

超过4000个机场的气象观测和天气预报(METAR&TAF报告)。

可查询的气象台以黄色和红色小点在地图上表示。

将鼠标移到小点上方,可查看气象台名称。

然后点击查看天气观测和预报。

如需切换地图:点击带黑十字的绿色按钮放大地图;点击带横线的绿色按钮缩小地图;或者点击绿色箭头查看邻近地区的地图。


METAR-TAF: